KMGC/MGC METAR and TAF weather

Enter ICAO airport designator
Station Type Date Time Source
KMGC METAR 2022/01/28 00:15 UTC NOAA

KMGC 280015Z AUTO 29006KT 10SM BKN031 OVC038 00/M05 A3017 RMK AO2


Station Type Date Time Source
KMGC Decoded METAR 2022/01/28 00:15 UTC NOAA

Station name not available
Jan 27, 2022 - 07:15 PM EST / 2022.01.28 0015 UTC
Wind: from the WNW (290 degrees) at 7 MPH (6 KT):0
Visibility: 10 mile(s):0
Sky conditions: overcast
Temperature: 32 F (0 C)
Windchill: 24 F (-4 C):1
Dew Point: 23 F (-5 C)
Relative Humidity: 69%
Pressure (altimeter): 30.17 in. Hg (1021 hPa)
ob: KMGC 280015Z AUTO 29006KT 10SM BKN031 OVC038 00/M05 A3017 RMK AO2
cycle: 0

Station Type Date Time Source
KMGC TAF UTC NOAA

Error!

Example: see airport list